sensor_id;sensor_type;location;lat;lon;timestamp;temperature;humidity
44513;DHT22;30219;50.588;9.504;2023-02-23T00:00:52;4.60;99.90
44513;DHT22;30219;50.588;9.504;2023-02-23T00:03:18;4.60;99.90
44513;DHT22;30219;50.588;9.504;2023-02-23T00:05:43;4.50;99.90
44513;DHT22;30219;50.588;9.504;2023-02-23T00:08:08;4.60;99.90
44513;DHT22;30219;50.588;9.504;2023-02-23T00:10:35;4.50;99.90
44513;DHT22;30219;50.588;9.504;2023-02-23T00:13:00;4.50;99.90
44513;DHT22;30219;50.588;9.504;2023-02-23T00:15:26;4.60;99.90
44513;DHT22;30219;50.588;9.504;2023-02-23T00:17:55;4.70;99.90
44513;DHT22;30219;50.588;9.504;2023-02-23T00:20:21;4.80;99.90
44513;DHT22;30219;50.588;9.504;2023-02-23T00:22:55;4.70;99.90
44513;DHT22;30219;50.588;9.504;2023-02-23T00:25:21;4.80;99.90
44513;DHT22;30219;50.588;9.504;2023-02-23T00:27:47;4.80;99.90
44513;DHT22;30219;50.588;9.504;2023-02-23T00:30:14;4.80;99.90
44513;DHT22;30219;50.588;9.504;2023-02-23T00:32:40;4.80;99.90
44513;DHT22;30219;50.588;9.504;2023-02-23T00:35:06;4.70;99.90
44513;DHT22;30219;50.588;9.504;2023-02-23T00:37:36;4.60;99.90
44513;DHT22;30219;50.588;9.504;2023-02-23T00:40:02;4.60;99.90
44513;DHT22;30219;50.588;9.504;2023-02-23T00:42:31;4.60;99.90
44513;DHT22;30219;50.588;9.504;2023-02-23T00:44:56;4.50;99.90
44513;DHT22;30219;50.588;9.504;2023-02-23T00:47:22;4.60;99.90
44513;DHT22;30219;50.588;9.504;2023-02-23T00:49:47;4.70;99.90
44513;DHT22;30219;50.588;9.504;2023-02-23T00:52:13;4.80;99.90
44513;DHT22;30219;50.588;9.504;2023-02-23T00:54:39;4.80;99.90
44513;DHT22;30219;50.588;9.504;2023-02-23T00:57:04;4.90;99.90
44513;DHT22;30219;50.588;9.504;2023-02-23T00:59:30;4.90;99.90
44513;DHT22;30219;50.588;9.504;2023-02-23T01:01:55;5.00;99.90
44513;DHT22;30219;50.588;9.504;2023-02-23T01:04:21;5.00;99.90
44513;DHT22;30219;50.588;9.504;2023-02-23T01:06:50;5.00;99.90
44513;DHT22;30219;50.588;9.504;2023-02-23T01:09:15;5.00;99.90
44513;DHT22;30219;50.588;9.504;2023-02-23T01:11:52;5.00;99.90
44513;DHT22;30219;50.588;9.504;2023-02-23T01:14:17;4.90;99.90
44513;DHT22;30219;50.588;9.504;2023-02-23T01:16:43;4.80;99.90
44513;DHT22;30219;50.588;9.504;2023-02-23T01:19:08;4.90;99.90
44513;DHT22;30219;50.588;9.504;2023-02-23T01:21:35;5.00;99.90
44513;DHT22;30219;50.588;9.504;2023-02-23T01:24:01;5.10;99.90
44513;DHT22;30219;50.588;9.504;2023-02-23T01:26:28;4.90;99.90
44513;DHT22;30219;50.588;9.504;2023-02-23T01:28:55;4.90;99.90
44513;DHT22;30219;50.588;9.504;2023-02-23T01:31:21;5.00;99.90
44513;DHT22;30219;50.588;9.504;2023-02-23T01:33:47;5.00;99.90
44513;DHT22;30219;50.588;9.504;2023-02-23T01:36:16;5.10;99.90
44513;DHT22;30219;50.588;9.504;2023-02-23T01:38:42;5.20;99.90
44513;DHT22;30219;50.588;9.504;2023-02-23T01:41:08;5.20;99.90
44513;DHT22;30219;50.588;9.504;2023-02-23T01:43:34;5.10;99.90
44513;DHT22;30219;50.588;9.504;2023-02-23T01:46:01;5.20;99.90
44513;DHT22;30219;50.588;9.504;2023-02-23T01:48:31;5.20;99.90
44513;DHT22;30219;50.588;9.504;2023-02-23T01:50:59;5.20;99.90
44513;DHT22;30219;50.588;9.504;2023-02-23T01:53:27;5.20;99.90
44513;DHT22;30219;50.588;9.504;2023-02-23T01:55:54;5.30;99.90
44513;DHT22;30219;50.588;9.504;2023-02-23T01:58:22;5.30;99.90
44513;DHT22;30219;50.588;9.504;2023-02-23T02:00:49;5.30;99.90
44513;DHT22;30219;50.588;9.504;2023-02-23T02:03:21;5.40;99.90
44513;DHT22;30219;50.588;9.504;2023-02-23T02:05:48;5.30;99.90
44513;DHT22;30219;50.588;9.504;2023-02-23T02:08:14;5.30;99.90
44513;DHT22;30219;50.588;9.504;2023-02-23T02:10:40;5.30;99.90
44513;DHT22;30219;50.588;9.504;2023-02-23T02:13:14;5.30;99.90
44513;DHT22;30219;50.588;9.504;2023-02-23T02:15:46;5.40;99.90
44513;DHT22;30219;50.588;9.504;2023-02-23T02:24:03;5.30;99.90
44513;DHT22;30219;50.588;9.504;2023-02-23T02:26:03;5.30;99.90
44513;DHT22;30219;50.588;9.504;2023-02-23T02:41:43;5.40;99.90
44513;DHT22;30219;50.588;9.504;2023-02-23T02:44:17;5.40;99.90
44513;DHT22;30219;50.588;9.504;2023-02-23T02:46:45;5.30;99.90
44513;DHT22;30219;50.588;9.504;2023-02-23T02:49:19;5.30;99.90
44513;DHT22;30219;50.588;9.504;2023-02-23T02:52:11;5.30;99.90
44513;DHT22;30219;50.588;9.504;2023-02-23T02:54:50;5.30;99.90
44513;DHT22;30219;50.588;9.504;2023-02-23T02:57:18;5.30;99.90
44513;DHT22;30219;50.588;9.504;2023-02-23T02:59:45;5.30;99.90
44513;DHT22;30219;50.588;9.504;2023-02-23T03:02:30;5.30;99.90
44513;DHT22;30219;50.588;9.504;2023-02-23T03:05:16;5.30;99.90
44513;DHT22;30219;50.588;9.504;2023-02-23T03:10:55;5.30;99.90
44513;DHT22;30219;50.588;9.504;2023-02-23T03:13:50;5.20;99.90
44513;DHT22;30219;50.588;9.504;2023-02-23T03:16:59;5.20;99.90
44513;DHT22;30219;50.588;9.504;2023-02-23T03:19:46;5.40;99.90
44513;DHT22;30219;50.588;9.504;2023-02-23T03:22:40;5.60;99.90
44513;DHT22;30219;50.588;9.504;2023-02-23T03:25:48;5.60;99.90
44513;DHT22;30219;50.588;9.504;2023-02-23T03:28:36;5.60;99.90
44513;DHT22;30219;50.588;9.504;2023-02-23T03:34:13;5.60;99.90
44513;DHT22;30219;50.588;9.504;2023-02-23T03:37:01;5.70;99.90
44513;DHT22;30219;50.588;9.504;2023-02-23T03:39:47;5.60;99.90
44513;DHT22;30219;50.588;9.504;2023-02-23T03:42:34;5.60;99.90
44513;DHT22;30219;50.588;9.504;2023-02-23T03:45:20;5.60;99.90
44513;DHT22;30219;50.588;9.504;2023-02-23T03:48:05;5.50;99.90
44513;DHT22;30219;50.588;9.504;2023-02-23T03:50:53;5.50;99.90
44513;DHT22;30219;50.588;9.504;2023-02-23T03:53:43;5.50;99.90
44513;DHT22;30219;50.588;9.504;2023-02-23T03:56:27;5.50;99.90
44513;DHT22;30219;50.588;9.504;2023-02-23T03:59:14;5.50;99.90
44513;DHT22;30219;50.588;9.504;2023-02-23T04:02:01;5.40;99.90
44513;DHT22;30219;50.588;9.504;2023-02-23T04:04:46;5.40;99.90
44513;DHT22;30219;50.588;9.504;2023-02-23T04:07:30;5.30;99.90
44513;DHT22;30219;50.588;9.504;2023-02-23T04:10:17;5.20;99.90
44513;DHT22;30219;50.588;9.504;2023-02-23T04:13:10;5.20;99.90
44513;DHT22;30219;50.588;9.504;2023-02-23T04:15:41;5.20;99.90
44513;DHT22;30219;50.588;9.504;2023-02-23T04:18:10;5.20;99.90
44513;DHT22;30219;50.588;9.504;2023-02-23T04:20:36;5.20;99.90
44513;DHT22;30219;50.588;9.504;2023-02-23T04:23:02;5.10;99.90
44513;DHT22;30219;50.588;9.504;2023-02-23T04:25:28;5.10;99.90
44513;DHT22;30219;50.588;9.504;2023-02-23T04:27:53;5.10;99.90
44513;DHT22;30219;50.588;9.504;2023-02-23T04:30:19;5.10;99.90
44513;DHT22;30219;50.588;9.504;2023-02-23T04:32:44;5.00;99.90
44513;DHT22;30219;50.588;9.504;2023-02-23T04:35:10;5.10;99.90
44513;DHT22;30219;50.588;9.504;2023-02-23T04:37:36;5.10;99.90
44513;DHT22;30219;50.588;9.504;2023-02-23T04:40:01;5.10;99.90
44513;DHT22;30219;50.588;9.504;2023-02-23T04:42:27;5.10;99.90
44513;DHT22;30219;50.588;9.504;2023-02-23T04:44:53;5.20;99.90
44513;DHT22;30219;50.588;9.504;2023-02-23T04:47:18;5.10;99.90
44513;DHT22;30219;50.588;9.504;2023-02-23T04:49:44;5.20;99.90
44513;DHT22;30219;50.588;9.504;2023-02-23T04:52:09;5.20;99.90
44513;DHT22;30219;50.588;9.504;2023-02-23T04:54:36;5.30;99.90
44513;DHT22;30219;50.588;9.504;2023-02-23T04:57:02;5.30;99.90
44513;DHT22;30219;50.588;9.504;2023-02-23T04:59:28;5.30;99.90
44513;DHT22;30219;50.588;9.504;2023-02-23T05:01:53;5.40;99.90
44513;DHT22;30219;50.588;9.504;2023-02-23T05:04:19;5.40;99.90
44513;DHT22;30219;50.588;9.504;2023-02-23T05:06:44;5.50;99.90
44513;DHT22;30219;50.588;9.504;2023-02-23T05:09:10;5.50;99.90
44513;DHT22;30219;50.588;9.504;2023-02-23T05:11:35;5.50;99.90
44513;DHT22;30219;50.588;9.504;2023-02-23T05:14:02;5.60;99.90
44513;DHT22;30219;50.588;9.504;2023-02-23T05:16:27;5.70;99.90
44513;DHT22;30219;50.588;9.504;2023-02-23T05:18:53;5.80;99.90
44513;DHT22;30219;50.588;9.504;2023-02-23T05:21:18;5.80;99.90
44513;DHT22;30219;50.588;9.504;2023-02-23T05:23:44;5.80;99.90
44513;DHT22;30219;50.588;9.504;2023-02-23T05:26:10;5.80;99.90
44513;DHT22;30219;50.588;9.504;2023-02-23T05:28:37;5.90;99.90
44513;DHT22;30219;50.588;9.504;2023-02-23T05:31:03;5.80;99.90
44513;DHT22;30219;50.588;9.504;2023-02-23T05:33:29;5.90;99.90
44513;DHT22;30219;50.588;9.504;2023-02-23T05:35:55;6.00;99.90
44513;DHT22;30219;50.588;9.504;2023-02-23T05:38:21;5.90;99.90
44513;DHT22;30219;50.588;9.504;2023-02-23T05:40:46;5.90;99.90
44513;DHT22;30219;50.588;9.504;2023-02-23T05:43:12;5.80;99.90
44513;DHT22;30219;50.588;9.504;2023-02-23T05:45:41;5.80;99.90
44513;DHT22;30219;50.588;9.504;2023-02-23T05:48:07;5.90;99.90
44513;DHT22;30219;50.588;9.504;2023-02-23T05:50:33;5.80;99.90
44513;DHT22;30219;50.588;9.504;2023-02-23T05:52:58;5.70;99.90
44513;DHT22;30219;50.588;9.504;2023-02-23T05:55:24;5.70;99.90
44513;DHT22;30219;50.588;9.504;2023-02-23T05:57:50;5.60;99.90
44513;DHT22;30219;50.588;9.504;2023-02-23T06:00:15;5.50;99.90
44513;DHT22;30219;50.588;9.504;2023-02-23T06:02:42;5.60;99.90
44513;DHT22;30219;50.588;9.504;2023-02-23T06:05:08;5.60;99.90
44513;DHT22;30219;50.588;9.504;2023-02-23T06:07:33;5.60;99.90
44513;DHT22;30219;50.588;9.504;2023-02-23T06:09:59;5.60;99.90
44513;DHT22;30219;50.588;9.504;2023-02-23T06:12:24;5.60;99.90
44513;DHT22;30219;50.588;9.504;2023-02-23T06:14:50;5.60;99.90
44513;DHT22;30219;50.588;9.504;2023-02-23T06:17:16;5.70;99.90
44513;DHT22;30219;50.588;9.504;2023-02-23T06:19:41;5.70;99.90
44513;DHT22;30219;50.588;9.504;2023-02-23T06:22:07;5.70;99.90
44513;DHT22;30219;50.588;9.504;2023-02-23T06:24:32;5.80;99.90
44513;DHT22;30219;50.588;9.504;2023-02-23T06:26:58;5.80;99.90
44513;DHT22;30219;50.588;9.504;2023-02-23T06:29:24;5.80;99.90
44513;DHT22;30219;50.588;9.504;2023-02-23T06:31:49;5.90;99.90
44513;DHT22;30219;50.588;9.504;2023-02-23T06:34:15;5.90;99.90
44513;DHT22;30219;50.588;9.504;2023-02-23T06:36:41;5.90;99.90
44513;DHT22;30219;50.588;9.504;2023-02-23T06:39:06;5.90;99.90
44513;DHT22;30219;50.588;9.504;2023-02-23T06:41:31;6.00;99.90
44513;DHT22;30219;50.588;9.504;2023-02-23T06:43:57;5.90;99.90
44513;DHT22;30219;50.588;9.504;2023-02-23T06:46:23;6.00;99.90
44513;DHT22;30219;50.588;9.504;2023-02-23T06:48:48;5.90;99.90
44513;DHT22;30219;50.588;9.504;2023-02-23T06:51:14;5.90;99.90
44513;DHT22;30219;50.588;9.504;2023-02-23T06:53:39;5.90;99.90
44513;DHT22;30219;50.588;9.504;2023-02-23T06:56:05;5.80;99.90
44513;DHT22;30219;50.588;9.504;2023-02-23T06:58:30;5.80;99.90
44513;DHT22;30219;50.588;9.504;2023-02-23T07:00:56;5.80;99.90
44513;DHT22;30219;50.588;9.504;2023-02-23T07:03:24;5.80;99.90
44513;DHT22;30219;50.588;9.504;2023-02-23T07:05:49;5.80;99.90
44513;DHT22;30219;50.588;9.504;2023-02-23T07:08:16;5.80;99.90
44513;DHT22;30219;50.588;9.504;2023-02-23T07:10:42;5.70;99.90
44513;DHT22;30219;50.588;9.504;2023-02-23T07:13:08;5.70;99.90
44513;DHT22;30219;50.588;9.504;2023-02-23T07:15:35;5.70;99.90
44513;DHT22;30219;50.588;9.504;2023-02-23T07:18:00;5.70;99.90
44513;DHT22;30219;50.588;9.504;2023-02-23T07:20:26;5.80;99.90
44513;DHT22;30219;50.588;9.504;2023-02-23T07:22:51;5.80;99.90
44513;DHT22;30219;50.588;9.504;2023-02-23T07:25:17;5.90;99.90
44513;DHT22;30219;50.588;9.504;2023-02-23T07:27:42;5.80;99.90
44513;DHT22;30219;50.588;9.504;2023-02-23T07:30:09;5.90;99.90
44513;DHT22;30219;50.588;9.504;2023-02-23T07:32:35;5.90;99.90
44513;DHT22;30219;50.588;9.504;2023-02-23T07:35:01;6.00;99.90
44513;DHT22;30219;50.588;9.504;2023-02-23T07:37:26;6.00;99.90
44513;DHT22;30219;50.588;9.504;2023-02-23T07:39:52;6.00;99.90
44513;DHT22;30219;50.588;9.504;2023-02-23T07:42:17;6.10;99.90
44513;DHT22;30219;50.588;9.504;2023-02-23T07:44:43;6.10;99.90
44513;DHT22;30219;50.588;9.504;2023-02-23T07:47:09;6.10;99.90
44513;DHT22;30219;50.588;9.504;2023-02-23T07:49:35;6.30;99.90
44513;DHT22;30219;50.588;9.504;2023-02-23T07:52:00;6.30;99.90
44513;DHT22;30219;50.588;9.504;2023-02-23T07:54:26;6.30;99.90
44513;DHT22;30219;50.588;9.504;2023-02-23T07:56:51;6.40;99.90
44513;DHT22;30219;50.588;9.504;2023-02-23T07:59:17;6.40;99.90
44513;DHT22;30219;50.588;9.504;2023-02-23T08:01:42;6.40;99.90
44513;DHT22;30219;50.588;9.504;2023-02-23T08:04:08;6.30;99.90
44513;DHT22;30219;50.588;9.504;2023-02-23T08:06:33;6.40;99.90
44513;DHT22;30219;50.588;9.504;2023-02-23T08:09:00;6.50;99.90
44513;DHT22;30219;50.588;9.504;2023-02-23T08:11:25;6.50;99.90
44513;DHT22;30219;50.588;9.504;2023-02-23T08:13:53;6.60;99.90
44513;DHT22;30219;50.588;9.504;2023-02-23T08:16:20;6.60;99.90
44513;DHT22;30219;50.588;9.504;2023-02-23T08:18:46;6.70;99.90
44513;DHT22;30219;50.588;9.504;2023-02-23T08:21:11;6.70;99.90
44513;DHT22;30219;50.588;9.504;2023-02-23T08:23:37;6.80;99.90
44513;DHT22;30219;50.588;9.504;2023-02-23T08:26:02;6.90;99.90
44513;DHT22;30219;50.588;9.504;2023-02-23T08:28:28;7.00;99.90
44513;DHT22;30219;50.588;9.504;2023-02-23T08:30:54;7.00;99.90
44513;DHT22;30219;50.588;9.504;2023-02-23T08:33:20;7.00;99.90
44513;DHT22;30219;50.588;9.504;2023-02-23T08:35:45;7.20;99.90
44513;DHT22;30219;50.588;9.504;2023-02-23T08:38:11;7.30;99.90
44513;DHT22;30219;50.588;9.504;2023-02-23T08:40:36;7.30;99.90
44513;DHT22;30219;50.588;9.504;2023-02-23T08:43:02;7.40;99.90
44513;DHT22;30219;50.588;9.504;2023-02-23T08:45:27;7.50;99.90
44513;DHT22;30219;50.588;9.504;2023-02-23T08:47:55;7.50;99.90
44513;DHT22;30219;50.588;9.504;2023-02-23T08:50:21;7.60;99.90
44513;DHT22;30219;50.588;9.504;2023-02-23T08:52:47;7.60;99.90
44513;DHT22;30219;50.588;9.504;2023-02-23T08:55:12;7.70;99.90
44513;DHT22;30219;50.588;9.504;2023-02-23T08:57:40;7.80;99.90
44513;DHT22;30219;50.588;9.504;2023-02-23T09:00:06;7.80;99.90
44513;DHT22;30219;50.588;9.504;2023-02-23T09:02:39;7.90;99.90
44513;DHT22;30219;50.588;9.504;2023-02-23T09:05:04;8.00;99.90
44513;DHT22;30219;50.588;9.504;2023-02-23T09:07:30;8.10;99.90
44513;DHT22;30219;50.588;9.504;2023-02-23T09:09:55;8.20;99.90
44513;DHT22;30219;50.588;9.504;2023-02-23T09:12:21;8.00;99.90
44513;DHT22;30219;50.588;9.504;2023-02-23T09:14:46;8.00;99.90
44513;DHT22;30219;50.588;9.504;2023-02-23T09:17:12;8.10;99.90
44513;DHT22;30219;50.588;9.504;2023-02-23T09:19:37;8.10;99.90
44513;DHT22;30219;50.588;9.504;2023-02-23T09:22:03;8.00;99.90
44513;DHT22;30219;50.588;9.504;2023-02-23T09:24:28;7.90;99.90
44513;DHT22;30219;50.588;9.504;2023-02-23T09:26:54;7.90;99.90
44513;DHT22;30219;50.588;9.504;2023-02-23T09:29:19;8.00;99.90
44513;DHT22;30219;50.588;9.504;2023-02-23T09:31:45;8.00;99.90
44513;DHT22;30219;50.588;9.504;2023-02-23T09:34:10;8.10;99.90
44513;DHT22;30219;50.588;9.504;2023-02-23T09:36:37;8.10;99.90
44513;DHT22;30219;50.588;9.504;2023-02-23T09:39:02;8.20;99.90
44513;DHT22;30219;50.588;9.504;2023-02-23T09:43:55;8.30;99.90
44513;DHT22;30219;50.588;9.504;2023-02-23T09:48:57;8.50;99.90
44513;DHT22;30219;50.588;9.504;2023-02-23T09:51:25;8.60;99.90
44513;DHT22;30219;50.588;9.504;2023-02-23T09:56:29;8.60;99.90
44513;DHT22;30219;50.588;9.504;2023-02-23T09:58:55;8.70;99.90
44513;DHT22;30219;50.588;9.504;2023-02-23T10:01:27;8.70;99.90
44513;DHT22;30219;50.588;9.504;2023-02-23T10:03:58;8.70;99.90
44513;DHT22;30219;50.588;9.504;2023-02-23T10:06:25;8.70;99.90
44513;DHT22;30219;50.588;9.504;2023-02-23T10:14:00;8.80;99.90
44513;DHT22;30219;50.588;9.504;2023-02-23T10:22:03;8.90;99.90
44513;DHT22;30219;50.588;9.504;2023-02-23T10:24:44;8.90;99.90
44513;DHT22;30219;50.588;9.504;2023-02-23T10:27:16;9.10;99.90
44513;DHT22;30219;50.588;9.504;2023-02-23T10:29:45;9.20;99.90
44513;DHT22;30219;50.588;9.504;2023-02-23T10:34:56;9.20;99.90
44513;DHT22;30219;50.588;9.504;2023-02-23T10:37:22;9.20;99.90
44513;DHT22;30219;50.588;9.504;2023-02-23T10:39:48;9.20;99.90
44513;DHT22;30219;50.588;9.504;2023-02-23T10:42:22;9.30;99.90
44513;DHT22;30219;50.588;9.504;2023-02-23T10:44:52;9.20;99.90
44513;DHT22;30219;50.588;9.504;2023-02-23T10:47:19;9.30;99.90
44513;DHT22;30219;50.588;9.504;2023-02-23T10:49:50;9.30;99.90
44513;DHT22;30219;50.588;9.504;2023-02-23T10:52:17;9.30;99.90
44513;DHT22;30219;50.588;9.504;2023-02-23T10:54:45;9.20;99.90
44513;DHT22;30219;50.588;9.504;2023-02-23T10:57:18;9.20;99.90
44513;DHT22;30219;50.588;9.504;2023-02-23T10:59:57;9.20;99.90
44513;DHT22;30219;50.588;9.504;2023-02-23T11:02:24;9.20;99.90
44513;DHT22;30219;50.588;9.504;2023-02-23T11:04:53;9.30;99.90
44513;DHT22;30219;50.588;9.504;2023-02-23T11:07:22;9.30;99.90
44513;DHT22;30219;50.588;9.504;2023-02-23T11:09:48;9.40;99.90
44513;DHT22;30219;50.588;9.504;2023-02-23T11:14:59;9.40;99.90
44513;DHT22;30219;50.588;9.504;2023-02-23T11:17:44;9.40;99.90
44513;DHT22;30219;50.588;9.504;2023-02-23T11:20:21;9.50;99.90
44513;DHT22;30219;50.588;9.504;2023-02-23T11:22:49;9.50;99.90
44513;DHT22;30219;50.588;9.504;2023-02-23T11:25:19;9.50;99.90
44513;DHT22;30219;50.588;9.504;2023-02-23T11:27:48;9.60;99.90
44513;DHT22;30219;50.588;9.504;2023-02-23T11:30:15;9.60;99.90
44513;DHT22;30219;50.588;9.504;2023-02-23T11:32:44;9.80;99.90
44513;DHT22;30219;50.588;9.504;2023-02-23T11:37:46;9.90;99.90
44513;DHT22;30219;50.588;9.504;2023-02-23T11:40:19;9.90;99.90
44513;DHT22;30219;50.588;9.504;2023-02-23T11:42:55;10.10;99.90
44513;DHT22;30219;50.588;9.504;2023-02-23T11:45:22;10.20;99.90
44513;DHT22;30219;50.588;9.504;2023-02-23T11:47:50;10.20;99.90
44513;DHT22;30219;50.588;9.504;2023-02-23T11:50:29;10.30;99.90
44513;DHT22;30219;50.588;9.504;2023-02-23T11:52:59;10.40;99.90
44513;DHT22;30219;50.588;9.504;2023-02-23T11:55:25;10.40;99.90
44513;DHT22;30219;50.588;9.504;2023-02-23T11:57:53;10.50;99.90
44513;DHT22;30219;50.588;9.504;2023-02-23T12:00:31;10.50;99.90
44513;DHT22;30219;50.588;9.504;2023-02-23T12:02:57;10.60;99.90
44513;DHT22;30219;50.588;9.504;2023-02-23T12:05:28;10.70;99.90
44513;DHT22;30219;50.588;9.504;2023-02-23T12:10:33;10.80;99.90
44513;DHT22;30219;50.588;9.504;2023-02-23T12:18:16;10.90;99.90
44513;DHT22;30219;50.588;9.504;2023-02-23T12:20:43;10.90;99.90
44513;DHT22;30219;50.588;9.504;2023-02-23T12:23:14;10.90;99.90
44513;DHT22;30219;50.588;9.504;2023-02-23T12:25:46;10.90;99.90
44513;DHT22;30219;50.588;9.504;2023-02-23T12:30:59;10.80;99.90
44513;DHT22;30219;50.588;9.504;2023-02-23T12:33:43;10.80;99.90
44513;DHT22;30219;50.588;9.504;2023-02-23T12:36:12;10.80;99.90
44513;DHT22;30219;50.588;9.504;2023-02-23T12:38:43;10.80;99.90
44513;DHT22;30219;50.588;9.504;2023-02-23T12:41:11;10.90;99.90
44513;DHT22;30219;50.588;9.504;2023-02-23T12:43:39;11.00;99.90
44513;DHT22;30219;50.588;9.504;2023-02-23T12:46:08;11.10;99.90
44513;DHT22;30219;50.588;9.504;2023-02-23T12:48:38;11.20;99.90
44513;DHT22;30219;50.588;9.504;2023-02-23T12:51:13;11.40;99.90
44513;DHT22;30219;50.588;9.504;2023-02-23T12:53:41;11.40;99.90
44513;DHT22;30219;50.588;9.504;2023-02-23T13:06:35;11.20;99.90
44513;DHT22;30219;50.588;9.504;2023-02-23T13:09:12;11.40;99.90
44513;DHT22;30219;50.588;9.504;2023-02-23T13:14:17;11.60;99.90
44513;DHT22;30219;50.588;9.504;2023-02-23T13:16:51;11.60;99.90
44513;DHT22;30219;50.588;9.504;2023-02-23T13:19:23;11.60;99.90
44513;DHT22;30219;50.588;9.504;2023-02-23T13:22:20;11.60;99.90
44513;DHT22;30219;50.588;9.504;2023-02-23T13:24:47;11.50;99.90
44513;DHT22;30219;50.588;9.504;2023-02-23T13:27:14;11.40;99.90
44513;DHT22;30219;50.588;9.504;2023-02-23T13:29:42;11.30;99.90
44513;DHT22;30219;50.588;9.504;2023-02-23T13:32:12;11.20;99.90
44513;DHT22;30219;50.588;9.504;2023-02-23T13:34:43;11.30;99.90
44513;DHT22;30219;50.588;9.504;2023-02-23T13:37:10;11.30;99.90
44513;DHT22;30219;50.588;9.504;2023-02-23T13:42:09;11.40;99.90
44513;DHT22;30219;50.588;9.504;2023-02-23T13:44:40;11.50;99.90
44513;DHT22;30219;50.588;9.504;2023-02-23T13:55:09;12.10;99.90
44513;DHT22;30219;50.588;9.504;2023-02-23T13:57:53;12.30;99.90
44513;DHT22;30219;50.588;9.504;2023-02-23T14:00:19;12.40;99.90
44513;DHT22;30219;50.588;9.504;2023-02-23T14:02:45;12.50;99.90
44513;DHT22;30219;50.588;9.504;2023-02-23T14:05:16;12.70;99.90
44513;DHT22;30219;50.588;9.504;2023-02-23T14:07:43;12.70;99.90
44513;DHT22;30219;50.588;9.504;2023-02-23T14:10:19;12.60;99.90
44513;DHT22;30219;50.588;9.504;2023-02-23T14:13:03;12.60;99.90
44513;DHT22;30219;50.588;9.504;2023-02-23T14:20:55;12.40;99.90
44513;DHT22;30219;50.588;9.504;2023-02-23T14:28:22;12.40;99.90
44513;DHT22;30219;50.588;9.504;2023-02-23T14:33:34;12.30;99.90
44513;DHT22;30219;50.588;9.504;2023-02-23T14:36:00;12.20;99.90
44513;DHT22;30219;50.588;9.504;2023-02-23T14:40:51;12.10;99.90
44513;DHT22;30219;50.588;9.504;2023-02-23T14:46:12;12.10;99.90
44513;DHT22;30219;50.588;9.504;2023-02-23T14:48:39;12.00;99.90
44513;DHT22;30219;50.588;9.504;2023-02-23T14:51:09;11.80;99.90
44513;DHT22;30219;50.588;9.504;2023-02-23T14:53:36;11.70;99.90
44513;DHT22;30219;50.588;9.504;2023-02-23T14:56:02;11.60;99.90
44513;DHT22;30219;50.588;9.504;2023-02-23T14:58:28;11.50;99.90
44513;DHT22;30219;50.588;9.504;2023-02-23T15:00:54;11.40;99.90
44513;DHT22;30219;50.588;9.504;2023-02-23T15:03:20;11.30;99.90
44513;DHT22;30219;50.588;9.504;2023-02-23T15:08:16;11.20;99.90
44513;DHT22;30219;50.588;9.504;2023-02-23T15:10:43;11.10;99.90
44513;DHT22;30219;50.588;9.504;2023-02-23T15:15:53;10.90;99.90
44513;DHT22;30219;50.588;9.504;2023-02-23T15:18:40;10.90;99.90
44513;DHT22;30219;50.588;9.504;2023-02-23T15:21:09;11.00;99.90
44513;DHT22;30219;50.588;9.504;2023-02-23T15:23:35;10.90;99.90
44513;DHT22;30219;50.588;9.504;2023-02-23T15:28:41;10.70;99.90
44513;DHT22;30219;50.588;9.504;2023-02-23T15:31:09;10.60;99.90
44513;DHT22;30219;50.588;9.504;2023-02-23T15:33:36;10.50;99.90
44513;DHT22;30219;50.588;9.504;2023-02-23T15:36:05;10.40;99.90
44513;DHT22;30219;50.588;9.504;2023-02-23T15:38:32;10.20;99.90
44513;DHT22;30219;50.588;9.504;2023-02-23T15:40:59;10.20;99.90
44513;DHT22;30219;50.588;9.504;2023-02-23T15:43:25;10.10;99.90
44513;DHT22;30219;50.588;9.504;2023-02-23T15:45:54;10.10;99.90
44513;DHT22;30219;50.588;9.504;2023-02-23T15:48:21;10.10;99.90
44513;DHT22;30219;50.588;9.504;2023-02-23T15:50:49;10.20;99.90
44513;DHT22;30219;50.588;9.504;2023-02-23T15:53:34;10.20;99.90
44513;DHT22;30219;50.588;9.504;2023-02-23T15:56:42;10.20;99.90
44513;DHT22;30219;50.588;9.504;2023-02-23T15:58:49;10.30;99.90
44513;DHT22;30219;50.588;9.504;2023-02-23T16:01:20;10.30;99.90
44513;DHT22;30219;50.588;9.504;2023-02-23T16:04:04;10.30;99.90
44513;DHT22;30219;50.588;9.504;2023-02-23T16:06:32;10.30;99.90
44513;DHT22;30219;50.588;9.504;2023-02-23T16:09:00;10.30;99.90
44513;DHT22;30219;50.588;9.504;2023-02-23T16:11:30;10.30;99.90
44513;DHT22;30219;50.588;9.504;2023-02-23T16:14:00;10.30;99.90
44513;DHT22;30219;50.588;9.504;2023-02-23T16:16:26;10.20;99.90
44513;DHT22;30219;50.588;9.504;2023-02-23T16:18:52;10.10;99.90
44513;DHT22;30219;50.588;9.504;2023-02-23T16:21:20;10.10;99.90
44513;DHT22;30219;50.588;9.504;2023-02-23T16:23:48;10.00;99.90
44513;DHT22;30219;50.588;9.504;2023-02-23T16:26:15;10.10;99.90
44513;DHT22;30219;50.588;9.504;2023-02-23T16:28:43;10.10;99.90
44513;DHT22;30219;50.588;9.504;2023-02-23T16:31:09;10.10;99.90
44513;DHT22;30219;50.588;9.504;2023-02-23T16:33:42;10.20;99.90
44513;DHT22;30219;50.588;9.504;2023-02-23T16:38:39;10.10;99.90
44513;DHT22;30219;50.588;9.504;2023-02-23T16:41:06;10.00;99.90
44513;DHT22;30219;50.588;9.504;2023-02-23T16:43:36;10.00;99.90
44513;DHT22;30219;50.588;9.504;2023-02-23T16:46:01;9.90;99.90
44513;DHT22;30219;50.588;9.504;2023-02-23T16:48:27;9.90;99.90
44513;DHT22;30219;50.588;9.504;2023-02-23T16:50:52;9.90;99.90
44513;DHT22;30219;50.588;9.504;2023-02-23T16:53:18;9.80;99.90
44513;DHT22;30219;50.588;9.504;2023-02-23T16:55:53;9.70;99.90
44513;DHT22;30219;50.588;9.504;2023-02-23T16:58:23;9.70;99.90
44513;DHT22;30219;50.588;9.504;2023-02-23T17:00:49;9.70;99.90
44513;DHT22;30219;50.588;9.504;2023-02-23T17:03:25;9.60;99.90
44513;DHT22;30219;50.588;9.504;2023-02-23T17:05:52;9.50;99.90
44513;DHT22;30219;50.588;9.504;2023-02-23T17:08:18;9.40;99.90
44513;DHT22;30219;50.588;9.504;2023-02-23T17:10:45;9.30;99.90
44513;DHT22;30219;50.588;9.504;2023-02-23T17:13:17;9.30;99.90
44513;DHT22;30219;50.588;9.504;2023-02-23T17:15:44;9.20;99.90
44513;DHT22;30219;50.588;9.504;2023-02-23T17:18:19;9.20;99.90
44513;DHT22;30219;50.588;9.504;2023-02-23T17:20:48;9.10;99.90
44513;DHT22;30219;50.588;9.504;2023-02-23T17:23:13;9.00;99.90
44513;DHT22;30219;50.588;9.504;2023-02-23T17:25:39;8.90;99.90
44513;DHT22;30219;50.588;9.504;2023-02-23T17:28:04;8.80;99.90
44513;DHT22;30219;50.588;9.504;2023-02-23T17:30:30;8.80;99.90
44513;DHT22;30219;50.588;9.504;2023-02-23T17:32:56;8.90;99.90
44513;DHT22;30219;50.588;9.504;2023-02-23T17:35:23;8.80;99.90
44513;DHT22;30219;50.588;9.504;2023-02-23T17:37:49;8.80;99.90
44513;DHT22;30219;50.588;9.504;2023-02-23T17:40:15;8.80;99.90
44513;DHT22;30219;50.588;9.504;2023-02-23T17:42:41;8.80;99.90
44513;DHT22;30219;50.588;9.504;2023-02-23T17:45:07;8.70;99.90
44513;DHT22;30219;50.588;9.504;2023-02-23T17:47:33;8.70;99.90